Time;durP1;ratioP1;P1;durP2;ratioP2;P2;SDS_P1;SDS_P2;PMS_P1;PMS_P2;Temp;Humidity;BMP_temperature;BMP_pressure;BME280_temperature;BME280_humidity;BME280_pressure;Samples;Min_cycle;Max_cycle;Signal;HPM_P1;HPM_P2
2022/07/11 00:01:35;;;;;;;4.18;2.25;;;15.00;99.90;;;;;;9183813;19;20376;-71
2022/07/11 00:04:43;;;;;;;4.50;2.13;;;15.00;99.90;;;;;;9187982;19;20495;-70
2022/07/11 00:07:47;;;;;;;2.83;1.80;;;15.00;99.90;;;;;;9184325;19;20019;-71
2022/07/11 00:10:51;;;;;;;5.00;1.90;;;15.00;99.90;;;;;;9185964;19;20387;-70
2022/07/11 00:13:55;;;;;;;3.30;1.90;;;14.90;99.90;;;;;;9187425;19;20024;-71
2022/07/11 00:16:59;;;;;;;5.15;2.25;;;14.80;99.90;;;;;;9185439;19;20288;-71
2022/07/11 00:20:06;;;;;;;7.90;2.20;;;14.90;99.90;;;;;;9184260;19;20354;-70
2022/07/11 00:23:10;;;;;;;3.83;2.50;;;14.70;99.90;;;;;;9183536;19;20014;-71
2022/07/11 00:26:14;;;;;;;5.57;2.30;;;14.80;99.90;;;;;;9181918;19;20025;-71
2022/07/11 00:29:18;;;;;;;5.28;2.17;;;14.90;99.90;;;;;;9183226;19;20078;-70
2022/07/11 00:32:22;;;;;;;5.07;1.60;;;15.00;99.90;;;;;;9186724;19;20014;-70
2022/07/11 00:35:29;;;;;;;4.55;1.52;;;15.10;99.90;;;;;;9182911;19;20010;-70
2022/07/11 00:38:33;;;;;;;6.03;1.50;;;14.90;99.90;;;;;;9188115;19;20047;-70
2022/07/11 00:41:37;;;;;;;4.05;2.13;;;14.90;99.90;;;;;;9183310;19;20429;-70
2022/07/11 00:44:41;;;;;;;2.03;1.38;;;14.90;99.90;;;;;;9182938;19;20016;-70
2022/07/11 00:47:45;;;;;;;2.72;1.52;;;14.80;99.90;;;;;;9185047;19;20491;-70
2022/07/11 00:50:51;;;;;;;4.10;1.63;;;14.80;99.90;;;;;;9184202;19;20043;-70
2022/07/11 00:53:58;;;;;;;4.28;1.70;;;14.80;99.90;;;;;;9183761;19;20010;-71
2022/07/11 00:57:02;;;;;;;6.03;1.77;;;14.40;99.90;;;;;;9182387;19;20555;-70
2022/07/11 01:00:07;;;;;;;5.82;1.85;;;14.60;99.90;;;;;;9181287;19;20014;-70
2022/07/11 01:03:11;;;;;;;4.82;1.98;;;14.70;99.90;;;;;;9180637;19;20380;-70
2022/07/11 01:06:19;;;;;;;3.05;1.60;;;14.80;99.90;;;;;;9182274;19;20477;-70
2022/07/11 01:09:23;;;;;;;3.22;1.50;;;14.70;99.90;;;;;;9180735;19;20014;-70
2022/07/11 01:12:27;;;;;;;2.85;1.45;;;14.60;99.90;;;;;;9182829;19;20017;-70
2022/07/11 01:15:31;;;;;;;3.78;1.60;;;14.70;99.90;;;;;;9181664;19;20495;-70
2022/07/11 01:18:35;;;;;;;3.33;1.90;;;14.80;99.90;;;;;;9186365;19;20010;-70
2022/07/11 01:21:45;;;;;;;3.10;1.48;;;15.10;99.90;;;;;;9184190;19;20014;-70
2022/07/11 01:24:52;;;;;;;4.07;1.80;;;14.70;99.90;;;;;;9182402;19;20077;-70
2022/07/11 01:27:56;;;;;;;3.33;1.98;;;14.60;99.90;;;;;;9182612;19;20018;-71
2022/07/11 01:31:00;;;;;;;6.45;2.17;;;14.80;99.90;;;;;;9181828;19;20668;-70
2022/07/11 01:34:04;;;;;;;4.25;2.03;;;14.50;99.90;;;;;;9180611;19;20018;-70
2022/07/11 01:37:08;;;;;;;4.13;1.90;;;14.40;99.90;;;;;;9181173;19;20349;-70
2022/07/11 01:40:16;;;;;;;3.63;2.13;;;14.40;99.90;;;;;;9180657;19;20098;-70
2022/07/11 01:43:20;;;;;;;3.30;2.08;;;13.10;99.90;;;;;;9179377;19;20097;-70
2022/07/11 01:46:24;;;;;;;3.55;2.00;;;14.40;99.90;;;;;;9184996;19;20015;-70
2022/07/11 01:49:29;;;;;;;4.78;2.28;;;14.50;99.90;;;;;;9178918;19;20025;-71
2022/07/11 01:52:33;;;;;;;4.80;2.15;;;14.40;99.90;;;;;;9182159;19;20014;-71
2022/07/11 01:55:40;;;;;;;4.18;2.20;;;14.10;99.90;;;;;;9184909;19;20380;-70
2022/07/11 01:58:44;;;;;;;3.08;1.98;;;14.40;99.90;;;;;;9179420;19;20015;-71
2022/07/11 02:01:47;;;;;;;3.83;2.20;;;14.40;99.90;;;;;;9182948;19;20010;-70
2022/07/11 02:04:51;;;;;;;3.47;1.90;;;14.40;99.90;;;;;;9180116;19;20014;-71
2022/07/11 02:11:15;;;;;;;5.07;2.30;;;14.10;99.90;;;;;;9182598;19;20014;-70
2022/07/11 02:14:19;;;;;;;3.72;2.00;;;14.50;99.90;;;;;;9179818;19;20043;-71
2022/07/11 02:17:23;;;;;;;3.08;1.90;;;14.40;99.90;;;;;;9179412;19;20015;-70
2022/07/11 02:20:27;;;;;;;2.92;2.25;;;14.20;99.90;;;;;;9183897;19;20024;-70
2022/07/11 02:23:31;;;;;;;3.75;2.17;;;14.20;99.90;;;;;;9179277;19;20010;-71
2022/07/11 02:26:38;;;;;;;4.43;2.20;;;14.50;99.90;;;;;;9178456;19;20486;-70
2022/07/11 02:29:41;;;;;;;6.65;2.70;;;14.30;99.90;;;;;;9178888;19;20066;-70
2022/07/11 02:32:45;;;;;;;5.18;2.58;;;14.30;99.90;;;;;;9178389;19;20082;-70
2022/07/11 02:35:50;;;;;;;5.90;2.50;;;14.60;99.90;;;;;;9177311;19;20483;-70
2022/07/11 02:38:54;;;;;;;5.57;2.80;;;14.60;99.90;;;;;;9178999;19;20018;-70
2022/07/11 02:42:00;;;;;;;3.60;2.70;;;14.40;99.90;;;;;;9179346;19;20010;-70
2022/07/11 02:45:04;;;;;;;7.50;2.88;;;14.50;99.90;;;;;;9178364;19;20479;-70
2022/07/11 02:48:08;;;;;;;3.97;2.85;;;14.30;99.90;;;;;;9181338;19;20033;-70
2022/07/11 02:51:12;;;;;;;4.72;2.90;;;14.30;99.90;;;;;;9179720;19;20364;-70
2022/07/11 02:54:16;;;;;;;6.85;2.72;;;14.30;99.90;;;;;;9181714;19;20023;-70
2022/07/11 02:57:23;;;;;;;5.00;2.78;;;14.40;99.90;;;;;;9181326;19;20030;-70
2022/07/11 03:00:27;;;;;;;4.82;3.05;;;14.20;99.90;;;;;;9178897;19;20015;-70
2022/07/11 03:03:30;;;;;;;4.65;2.72;;;14.20;99.90;;;;;;9176338;19;20039;-70
2022/07/11 03:06:35;;;;;;;7.60;3.20;;;14.00;99.90;;;;;;9179896;19;20129;-70
2022/07/11 03:09:40;;;;;;;5.85;2.95;;;14.20;99.90;;;;;;9180361;19;20018;-70
2022/07/11 03:12:46;;;;;;;6.07;3.00;;;14.10;99.90;;;;;;9177295;19;20034;-70
2022/07/11 03:15:51;;;;;;;9.75;3.10;;;14.10;99.90;;;;;;9176660;19;20483;-70
2022/07/11 03:18:55;;;;;;;6.03;2.85;;;14.10;99.90;;;;;;9176586;19;20011;-71
2022/07/11 03:21:58;;;;;;;5.15;3.05;;;14.40;99.90;;;;;;9181845;19;20030;-70
2022/07/11 03:25:05;;;;;;;5.88;2.67;;;14.20;99.90;;;;;;9176121;19;20010;-70
2022/07/11 03:28:11;;;;;;;5.50;2.60;;;14.10;99.90;;;;;;9180913;19;20017;-70
2022/07/11 03:31:15;;;;;;;4.88;2.55;;;14.20;99.90;;;;;;9178562;19;20439;-70
2022/07/11 03:34:19;;;;;;;4.15;2.47;;;14.20;99.90;;;;;;9176256;19;20021;-70
2022/07/11 03:37:23;;;;;;;4.03;2.45;;;14.50;99.90;;;;;;9178527;19;20025;-70
2022/07/11 03:40:27;;;;;;;3.40;1.90;;;14.30;99.90;;;;;;9175887;19;20487;-70
2022/07/11 03:43:34;;;;;;;3.00;1.75;;;14.40;99.90;;;;;;9175280;19;20038;-70
2022/07/11 03:46:38;;;;;;;3.08;1.90;;;13.90;99.90;;;;;;9177273;19;20010;-70
2022/07/11 03:49:42;;;;;;;6.40;2.10;;;14.20;99.90;;;;;;9180854;19;20018;-70
2022/07/11 03:52:46;;;;;;;4.45;2.13;;;14.30;99.90;;;;;;9184727;19;20010;-70
2022/07/11 03:55:50;;;;;;;3.58;1.85;;;14.20;99.90;;;;;;9185052;19;20020;-70
2022/07/11 03:58:56;;;;;;;3.20;1.52;;;14.10;99.90;;;;;;9187827;19;20019;-70
2022/07/11 04:02:00;;;;;;;3.08;1.73;;;14.20;99.90;;;;;;9187311;19;20101;-70
2022/07/11 04:05:05;;;;;;;2.60;1.40;;;14.20;99.90;;;;;;9184545;19;20011;-70
2022/07/11 04:08:09;;;;;;;1.90;1.30;;;14.10;99.90;;;;;;9189467;19;20032;-70
2022/07/11 04:11:14;;;;;;;3.00;1.48;;;14.10;99.90;;;;;;9184796;19;20493;-70
2022/07/11 04:14:20;;;;;;;3.30;1.50;;;13.90;99.90;;;;;;9182678;19;20026;-70
2022/07/11 04:17:24;;;;;;;2.30;1.50;;;14.10;99.90;;;;;;9182705;19;20014;-70
2022/07/11 04:20:28;;;;;;;1.73;1.38;;;13.70;99.90;;;;;;9183729;19;20074;-70
2022/07/11 04:23:32;;;;;;;2.55;1.50;;;14.00;99.90;;;;;;9185685;19;20074;-70
2022/07/11 04:26:35;;;;;;;3.90;1.58;;;13.90;99.90;;;;;;9183446;19;20018;-70
2022/07/11 04:29:42;;;;;;;4.97;1.80;;;14.20;99.90;;;;;;9187648;19;20025;-70
2022/07/11 04:32:46;;;;;;;4.78;2.10;;;14.10;99.90;;;;;;9189627;19;20378;-70
2022/07/11 04:35:50;;;;;;;8.35;1.92;;;14.20;99.90;;;;;;9187569;19;20010;-70
2022/07/11 04:38:54;;;;;;;4.22;1.80;;;;;;;;;;9185574;19;20476;-70
2022/07/11 04:42:01;;;;;;;3.08;1.90;;;14.00;99.90;;;;;;9183410;19;20037;-70
2022/07/11 04:45:08;;;;;;;3.10;1.70;;;14.20;99.90;;;;;;9180198;19;20320;-70
2022/07/11 04:48:12;;;;;;;4.35;1.92;;;14.20;99.90;;;;;;9183715;19;20042;-70
2022/07/11 04:51:17;;;;;;;2.92;1.75;;;14.30;99.90;;;;;;9181959;19;20375;-70
2022/07/11 04:54:22;;;;;;;3.42;1.90;;;14.30;99.90;;;;;;9187072;19;20532;-70
2022/07/11 04:57:26;;;;;;;4.43;1.70;;;14.40;99.90;;;;;;9182070;19;20015;-70
2022/07/11 05:00:32;;;;;;;2.45;1.40;;;14.30;99.90;;;;;;9184199;19;20378;-70
2022/07/11 05:03:36;;;;;;;1.95;1.10;;;14.20;99.90;;;;;;9187225;19;20017;-70
2022/07/11 05:06:40;;;;;;;3.00;1.15;;;13.90;99.90;;;;;;9186712;19;20395;-70
2022/07/11 05:09:44;;;;;;;2.13;1.20;;;14.00;99.90;;;;;;9185664;19;20427;-70
2022/07/11 05:12:49;;;;;;;4.13;1.15;;;14.30;99.90;;;;;;9181877;19;20545;-70
2022/07/11 05:15:55;;;;;;;2.53;1.30;;;14.30;99.90;;;;;;9182285;19;20131;-70
2022/07/11 05:18:59;;;;;;;3.60;1.00;;;14.20;99.90;;;;;;9181608;19;20037;-70
2022/07/11 05:22:03;;;;;;;3.95;1.10;;;14.30;99.90;;;;;;9182182;19;20010;-70
2022/07/11 05:25:08;;;;;;;3.15;1.33;;;14.20;99.90;;;;;;9179202;19;20010;-70
2022/07/11 05:28:12;;;;;;;1.85;1.10;;;14.30;99.90;;;;;;9182054;19;20364;-70
2022/07/11 05:31:18;;;;;;;4.20;1.10;;;14.30;99.90;;;;;;9180730;19;20014;-70
2022/07/11 05:34:22;;;;;;;3.63;1.38;;;14.20;99.90;;;;;;9181549;19;20055;-70
2022/07/11 05:37:26;;;;;;;2.75;1.08;;;14.50;99.90;;;;;;9180765;19;20018;-70
2022/07/11 05:40:31;;;;;;;1.38;1.00;;;14.30;99.90;;;;;;9180691;19;20022;-70
2022/07/11 05:43:34;;;;;;;2.53;1.00;;;14.70;99.90;;;;;;9176109;19;20022;-70
2022/07/11 05:46:42;;;;;;;2.70;0.88;;;14.40;99.90;;;;;;9185034;19;20078;-70
2022/07/11 05:49:46;;;;;;;3.17;0.90;;;14.30;99.90;;;;;;9182464;19;20114;-70
2022/07/11 05:52:50;;;;;;;5.28;0.93;;;14.50;99.90;;;;;;9179669;19;20037;-70
2022/07/11 05:55:54;;;;;;;1.73;0.80;;;14.60;99.90;;;;;;9180272;19;20014;-70
2022/07/11 05:58:58;;;;;;;5.32;0.80;;;14.60;99.90;;;;;;9182220;19;20019;-70
2022/07/11 06:02:04;;;;;;;2.42;0.90;;;14.60;99.90;;;;;;9184887;19;20360;-70
2022/07/11 06:05:11;;;;;;;2.35;1.08;;;14.40;99.90;;;;;;9181563;19;20360;-70
2022/07/11 06:11:32;;;;;;;2.25;0.80;;;14.40;99.90;;;;;;9177061;19;20030;-70
2022/07/11 06:14:37;;;;;;;2.95;1.10;;;14.60;99.90;;;;;;9180689;19;20077;-70
2022/07/11 06:17:45;;;;;;;2.58;1.02;;;14.50;99.90;;;;;;9180691;19;20389;-70
2022/07/11 06:20:49;;;;;;;1.30;0.80;;;14.60;99.90;;;;;;9181545;19;20086;-70
2022/07/11 06:23:53;;;;;;;1.85;0.82;;;14.60;99.90;;;;;;9182067;19;20018;-70
2022/07/11 06:27:00;;;;;;;1.50;0.80;;;14.80;99.90;;;;;;9178104;19;20397;-70
2022/07/11 06:30:04;;;;;;;2.03;1.00;;;15.50;99.90;;;;;;9180485;19;20445;-70
2022/07/11 06:33:10;;;;;;;1.58;0.70;;;14.70;99.90;;;;;;9178180;19;20022;-70
2022/07/11 06:36:14;;;;;;;1.13;0.80;;;14.90;99.90;;;;;;9176980;19;20043;-70
2022/07/11 06:39:18;;;;;;;2.05;0.60;;;14.80;99.90;;;;;;9180690;19;20088;-70
2022/07/11 06:42:22;;;;;;;1.02;0.60;;;15.00;99.90;;;;;;9177457;19;20015;-70
2022/07/11 06:45:26;;;;;;;1.67;0.52;;;14.60;99.90;;;;;;9175989;19;20039;-70
2022/07/11 06:48:33;;;;;;;1.73;0.75;;;15.10;99.90;;;;;;9181242;19;20014;-70
2022/07/11 06:51:37;;;;;;;0.90;0.75;;;14.90;99.90;;;;;;9181418;19;20393;-70
2022/07/11 06:54:41;;;;;;;2.85;0.60;;;14.90;99.90;;;;;;9177715;19;20025;-70
2022/07/11 06:57:45;;;;;;;0.90;0.50;;;14.90;99.90;;;;;;9177421;19;20018;-70
2022/07/11 07:00:49;;;;;;;2.20;0.63;;;15.10;99.90;;;;;;9176857;19;20015;-70
2022/07/11 07:03:55;;;;;;;4.15;0.68;;;15.00;99.90;;;;;;9181502;19;20078;-70
2022/07/11 07:07:00;;;;;;;3.88;0.52;;;14.90;99.90;;;;;;9179705;19;20026;-70
2022/07/11 07:10:05;;;;;;;3.85;0.60;;;15.20;99.90;;;;;;9182624;19;20014;-70
2022/07/11 07:13:08;;;;;;;0.73;0.43;;;15.30;99.90;;;;;;9177237;19;20101;-70
2022/07/11 07:16:13;;;;;;;1.15;0.50;;;15.50;99.90;;;;;;9181415;19;20018;-70
2022/07/11 07:19:20;;;;;;;0.70;0.32;;;15.30;99.90;;;;;;9175788;19;20126;-70
2022/07/11 07:22:24;;;;;;;;;;;15.30;99.90;;;;;;9179261;19;20069;-70
2022/07/11 07:25:28;;;;;;;0.93;0.40;;;15.30;99.90;;;;;;9185776;19;19918;-70
2022/07/11 07:28:32;;;;;;;1.45;0.50;;;15.40;99.90;;;;;;9185152;19;20031;-70
2022/07/11 07:31:36;;;;;;;3.45;0.68;;;15.30;99.90;;;;;;9181547;19;20014;-70
2022/07/11 07:34:43;;;;;;;1.00;0.52;;;15.20;99.90;;;;;;9185454;19;20006;-71
2022/07/11 07:37:47;;;;;;;3.75;1.20;;;15.20;99.90;;;;;;9188500;19;20338;-70
2022/07/11 07:40:51;;;;;;;3.13;1.48;;;15.40;99.90;;;;;;9186247;19;20014;-70
2022/07/11 07:43:55;;;;;;;4.03;1.50;;;15.20;99.90;;;;;;9190259;19;20020;-70
2022/07/11 07:46:59;;;;;;;2.55;1.50;;;15.50;99.90;;;;;;9185499;19;20559;-70
2022/07/11 07:50:06;;;;;;;2.65;1.42;;;15.50;99.90;;;;;;9189900;19;20218;-71
2022/07/11 07:53:11;;;;;;;2.03;1.30;;;15.40;99.90;;;;;;9181448;19;20029;-70
2022/07/11 07:56:14;;;;;;;2.63;0.98;;;15.50;99.90;;;;;;9184488;19;20529;-70
2022/07/11 07:59:18;;;;;;;1.48;0.90;;;15.40;99.90;;;;;;9186220;19;20082;-70
2022/07/11 08:02:20;;;;;;;1.83;0.90;;;15.50;99.90;;;;;;9189458;19;20030;-71
2022/07/11 08:05:26;;;;;;;1.40;0.40;;;15.50;99.90;;;;;;9182096;19;20006;-70
2022/07/11 08:08:30;;;;;;;0.98;0.50;;;15.80;99.90;;;;;;9184439;19;20010;-70
2022/07/11 08:11:37;;;;;;;1.23;0.57;;;15.90;99.90;;;;;;9183920;19;20356;-70
2022/07/11 08:14:40;;;;;;;1.80;0.47;;;15.60;99.90;;;;;;9186235;19;20479;-70
2022/07/11 08:17:45;;;;;;;1.02;0.70;;;15.60;99.90;;;;;;9189053;19;20283;-70
2022/07/11 08:21:05;;;;;;;2.15;0.80;;;15.70;99.90;;;;;;9181570;19;20018;-70
2022/07/11 08:24:09;;;;;;;3.95;1.20;;;15.80;99.90;;;;;;9184888;19;20014;-70
2022/07/11 08:27:13;;;;;;;2.22;1.02;;;15.90;99.90;;;;;;9183232;19;20018;-70
2022/07/11 08:30:17;;;;;;;4.35;1.70;;;15.90;99.90;;;;;;9183114;19;20014;-70
2022/07/11 08:33:21;;;;;;;3.47;2.10;;;15.80;99.90;;;;;;9184790;19;20010;-70
2022/07/11 08:36:27;;;;;;;3.50;1.70;;;15.90;99.90;;;;;;9182353;19;20021;-70
2022/07/11 08:39:31;;;;;;;3.30;1.30;;;16.10;99.90;;;;;;9182353;19;20011;-70
2022/07/11 08:42:42;;;;;;;4.45;1.35;;;16.10;99.90;;;;;;9182455;19;20074;-70
2022/07/11 08:45:46;;;;;;;3.53;1.50;;;16.30;99.90;;;;;;9177261;19;20018;-70
2022/07/11 08:48:51;;;;;;;3.90;1.63;;;16.30;99.90;;;;;;9182472;19;20353;-71
2022/07/11 08:51:58;;;;;;;3.28;1.20;;;16.30;99.90;;;;;;9186381;19;20007;-71
2022/07/11 08:55:06;;;;;;;;;;;16.30;99.90;;;;;;9180315;19;20046;-70
2022/07/11 08:58:11;;;;;;;2.03;0.50;;;16.50;99.90;;;;;;9180211;19;19918;-70
2022/07/11 09:01:19;;;;;;;0.63;0.45;;;16.50;99.90;;;;;;9186396;19;20025;-70
2022/07/11 09:04:27;;;;;;;1.23;0.65;;;16.40;99.90;;;;;;9180702;19;20042;-70
2022/07/11 09:07:34;;;;;;;1.02;0.57;;;16.20;99.90;;;;;;9184478;19;20065;-70
2022/07/11 09:10:41;;;;;;;1.35;0.60;;;16.20;99.90;;;;;;9181361;19;20010;-70
2022/07/11 09:13:45;;;;;;;0.80;0.60;;;16.20;99.90;;;;;;9181964;19;20029;-71
2022/07/11 09:16:55;;;;;;;2.00;0.70;;;16.20;99.90;;;;;;9181535;19;20010;-70
2022/07/11 09:20:00;;;;;;;2.70;0.60;;;16.20;99.90;;;;;;9181839;19;20030;-70
2022/07/11 09:26:39;;;;;;;4.93;1.80;;;16.20;99.90;;;;;;9184278;19;20508;-70
2022/07/11 09:29:43;;;;;;;3.35;1.70;;;16.10;99.90;;;;;;9181024;19;20016;-70
2022/07/11 09:32:56;;;;;;;3.42;1.55;;;15.90;99.90;;;;;;9181173;19;20018;-70
2022/07/11 09:35:59;;;;;;;3.20;1.20;;;16.10;99.90;;;;;;9181408;19;20006;-70
2022/07/11 09:39:07;;;;;;;2.00;1.23;;;16.00;99.90;;;;;;9180395;19;20033;-71
2022/07/11 09:42:11;;;;;;;1.67;0.85;;;16.10;99.90;;;;;;9181328;19;20018;-70
2022/07/11 09:45:16;;;;;;;3.58;0.93;;;15.90;99.90;;;;;;9178997;19;20032;-70
2022/07/11 09:48:21;;;;;;;1.10;0.70;;;16.00;99.90;;;;;;9181013;19;20011;-70
2022/07/11 09:51:25;;;;;;;1.30;0.88;;;16.10;99.90;;;;;;9183784;19;20020;-71
2022/07/11 09:54:31;;;;;;;1.42;1.00;;;16.10;99.90;;;;;;9180305;19;20479;-70
2022/07/11 09:57:37;;;;;;;1.73;0.70;;;16.30;99.90;;;;;;9180839;19;20519;-70
2022/07/11 10:00:42;;;;;;;1.88;0.75;;;16.30;99.90;;;;;;9179382;19;20014;-70
2022/07/11 10:03:47;;;;;;;0.98;0.70;;;18.20;99.90;;;;;;9179589;19;20019;-70
2022/07/11 10:06:51;;;;;;;1.42;0.60;;;16.20;99.90;;;;;;9181287;19;20406;-69
2022/07/11 10:09:59;;;;;;;1.20;0.70;;;16.00;99.90;;;;;;9182003;19;20086;-69
2022/07/11 10:13:03;;;;;;;0.82;0.73;;;16.20;99.90;;;;;;9181540;19;20037;-68
2022/07/11 10:16:16;;;;;;;1.17;0.80;;;16.30;99.90;;;;;;9181018;19;20010;-68
2022/07/11 10:19:28;;;;;;;2.33;0.90;;;16.10;99.90;;;;;;9175709;19;20049;-68
2022/07/11 10:22:38;;;;;;;1.17;0.88;;;16.40;99.90;;;;;;9175526;19;20113;-68
2022/07/11 10:25:51;;;;;;;2.08;0.80;;;16.30;99.90;;;;;;9176426;19;20015;-68
2022/07/11 10:28:58;;;;;;;1.30;0.90;;;16.10;99.90;;;;;;9181279;19;20026;-68
2022/07/11 10:32:08;;;;;;;;;;;16.30;99.90;;;;;;9178593;19;20109;-68
2022/07/11 10:35:13;;;;;;;1.13;0.88;;;16.20;99.90;;;;;;9179514;19;19974;-69
2022/07/11 10:38:18;;;;;;;1.35;0.82;;;16.20;99.90;;;;;;9177969;19;20022;-71
2022/07/11 10:41:28;;;;;;;1.40;0.82;;;16.30;99.90;;;;;;9177311;19;20024;-72
2022/07/11 10:44:51;;;;;;;1.67;0.80;;;16.50;99.90;;;;;;9175830;19;20026;-74
2022/07/11 10:47:55;;;;;;;2.15;1.20;;;16.60;99.90;;;;;;9180737;19;20025;-70
2022/07/11 10:51:19;;;;;;;2.58;1.85;;;16.60;99.90;;;;;;9181915;19;20017;-69
2022/07/11 10:54:32;;;;;;;3.17;1.95;;;15.40;99.90;;;;;;9180358;19;20018;-70
2022/07/11 10:57:49;;;;;;;4.18;2.60;;;16.40;99.90;;;;;;9186537;19;20070;-70
2022/07/11 11:01:11;;;;;;;2.08;1.55;;;16.50;99.90;;;;;;9191579;19;20029;-71
2022/07/11 11:04:44;;;;;;;2.67;1.85;;;16.60;99.90;;;;;;9193008;19;20010;-72
2022/07/11 11:07:48;;;;;;;2.83;1.90;;;16.80;99.90;;;;;;9197979;19;20012;-71
2022/07/11 11:10:53;;;;;;;4.35;2.00;;;16.80;99.90;;;;;;9193321;19;20014;-72
2022/07/11 11:14:30;;;;;;;1.48;1.20;;;16.80;99.90;;;;;;9193463;19;20102;-72
2022/07/11 11:17:42;;;;;;;2.95;1.52;;;16.80;99.90;;;;;;9192365;19;20013;-71
2022/07/11 11:20:46;;;;;;;3.92;1.33;;;16.80;99.90;;;;;;9193079;19;20077;-72
2022/07/11 11:24:11;;;;;;;1.73;1.17;;;16.80;99.90;;;;;;9195934;19;20090;-72
2022/07/11 11:27:21;;;;;;;1.88;1.08;;;16.80;99.90;;;;;;9191682;19;20078;-78
2022/07/11 11:30:25;;;;;;;2.40;1.10;;;16.70;99.90;;;;;;9194063;19;20021;-70
2022/07/11 11:33:35;;;;;;;1.33;1.13;;;16.80;99.90;;;;;;9197153;19;20489;-70
2022/07/11 11:36:39;;;;;;;1.20;0.80;;;16.60;99.90;;;;;;9195240;19;20022;-70
2022/07/11 11:39:43;;;;;;;1.88;0.90;;;16.60;99.90;;;;;;9197102;19;20018;-70
2022/07/11 11:42:47;;;;;;;1.38;1.00;;;16.60;99.90;;;;;;9194708;19;20014;-70
2022/07/11 11:45:52;;;;;;;2.17;0.98;;;16.50;99.90;;;;;;9195144;19;20487;-70
2022/07/11 11:49:00;;;;;;;1.75;0.90;;;16.80;99.90;;;;;;9197655;19;20082;-70
2022/07/11 11:52:06;;;;;;;1.23;0.80;;;16.70;99.90;;;;;;9196525;19;20485;-70
2022/07/11 11:55:11;;;;;;;1.45;0.73;;;17.00;99.90;;;;;;9194819;19;20011;-70
2022/07/11 11:58:16;;;;;;;2.15;1.00;;;16.90;99.90;;;;;;9196712;19;20360;-70
2022/07/11 12:01:23;;;;;;;1.00;0.90;;;17.20;99.90;;;;;;9193426;19;20010;-70
2022/07/11 12:04:34;;;;;;;1.77;0.88;;;17.00;99.90;;;;;;9192930;19;20010;-70
2022/07/11 12:07:38;;;;;;;4.32;1.15;;;17.10;99.90;;;;;;9193704;19;20014;-70
2022/07/11 12:10:42;;;;;;;1.25;0.90;;;17.10;99.90;;;;;;9181883;19;20014;-70
2022/07/11 12:13:46;;;;;;;1.88;1.10;;;17.10;99.90;;;;;;9188671;19;20447;-70
2022/07/11 12:16:50;;;;;;;1.80;0.90;;;17.10;99.90;;;;;;9187056;19;20006;-70
2022/07/11 12:19:57;;;;;;;1.45;1.02;;;17.30;99.90;;;;;;9185854;19;20059;-70
2022/07/11 12:23:01;;;;;;;1.42;0.90;;;17.40;99.90;;;;;;9185606;19;20435;-69
2022/07/11 12:26:06;;;;;;;1.80;0.90;;;17.20;99.90;;;;;;9183965;19;20394;-70
2022/07/11 12:29:13;;;;;;;2.47;1.10;;;17.20;99.90;;;;;;9185744;19;20341;-70
2022/07/11 12:32:17;;;;;;;3.58;1.35;;;17.40;99.90;;;;;;9188638;19;20029;-70
2022/07/11 12:35:23;;;;;;;2.30;1.70;;;17.40;99.90;;;;;;9184857;19;20045;-69
2022/07/11 12:38:28;;;;;;;2.20;1.35;;;17.50;99.90;;;;;;9185752;19;20073;-69
2022/07/11 12:41:32;;;;;;;2.40;1.13;;;17.40;99.90;;;;;;9185992;19;20015;-70
2022/07/11 12:47:54;;;;;;;4.30;1.55;;;17.50;99.90;;;;;;9183703;19;20018;-69
2022/07/11 12:51:01;;;;;;;3.13;1.30;;;17.40;99.90;;;;;;9184556;19;20014;-69
2022/07/11 12:54:08;;;;;;;2.25;1.40;;;17.30;99.90;;;;;;9182451;19;20014;-70
2022/07/11 12:57:13;;;;;;;1.98;1.40;;;17.20;99.90;;;;;;9184951;19;20018;-69
2022/07/11 13:00:20;;;;;;;2.88;1.30;;;17.20;99.90;;;;;;9187254;19;20011;-69
2022/07/11 13:03:30;;;;;;;2.35;1.48;;;17.30;99.90;;;;;;9184442;19;20014;-69
2022/07/11 13:10:00;;;;;;;2.55;1.90;;;17.40;99.90;;;;;;9182377;19;20352;-69
2022/07/11 13:13:04;;;;;;;3.22;1.88;;;17.30;99.90;;;;;;9182174;19;20014;-69
2022/07/11 13:16:09;;;;;;;3.65;1.60;;;17.30;99.90;;;;;;9183683;19;20018;-70
2022/07/11 13:19:13;;;;;;;2.55;1.50;;;17.50;99.90;;;;;;9182626;19;20014;-69
2022/07/11 13:22:20;;;;;;;2.72;1.70;;;17.50;99.90;;;;;;9183847;19;20021;-70
2022/07/11 13:25:26;;;;;;;2.25;1.70;;;17.50;99.90;;;;;;9181197;19;20022;-70
2022/07/11 13:28:30;;;;;;;3.25;1.52;;;17.50;99.90;;;;;;9182739;19;20026;-70
2022/07/11 13:31:34;;;;;;;1.30;1.10;;;17.70;99.90;;;;;;9181082;19;20074;-69
2022/07/11 13:34:38;;;;;;;2.97;1.80;;;17.50;99.90;;;;;;9180181;19;20010;-69
2022/07/11 13:37:45;;;;;;;2.08;1.48;;;17.60;99.90;;;;;;9186541;19;20096;-69
2022/07/11 13:40:52;;;;;;;2.60;1.80;;;17.60;99.90;;;;;;9184895;19;20010;-70
2022/07/11 13:43:56;;;;;;;2.45;1.83;;;17.80;99.90;;;;;;9180103;19;20412;-70
2022/07/11 13:47:00;;;;;;;3.33;1.90;;;17.70;99.90;;;;;;9181636;19;20047;-69
2022/07/11 13:50:05;;;;;;;2.20;1.35;;;18.00;99.90;;;;;;9178003;19;20478;-69
2022/07/11 13:53:11;;;;;;;3.08;1.55;;;17.70;99.90;;;;;;9181491;19;20025;-69
2022/07/11 13:56:15;;;;;;;2.40;1.88;;;17.80;99.90;;;;;;9181130;19;20022;-69
2022/07/11 13:59:20;;;;;;;2.95;1.70;;;18.00;99.90;;;;;;9179243;19;20014;-69
2022/07/11 14:02:24;;;;;;;2.80;1.60;;;17.60;99.90;;;;;;9179571;19;20066;-69
2022/07/11 14:05:28;;;;;;;4.10;2.30;;;17.80;99.90;;;;;;9180689;19;20018;-70
2022/07/11 14:08:35;;;;;;;2.50;1.75;;;17.70;99.90;;;;;;9178477;19;20372;-70
2022/07/11 14:11:39;;;;;;;3.55;1.50;;;17.70;99.90;;;;;;9178807;19;20015;-69
2022/07/11 14:14:43;;;;;;;2.00;1.55;;;17.70;99.90;;;;;;9183763;19;20019;-69
2022/07/11 14:17:46;;;;;;;3.35;2.20;;;17.60;99.90;;;;;;9183106;19;20025;-69
2022/07/11 14:20:51;;;;;;;2.78;1.90;;;17.90;99.90;;;;;;9178791;19;20010;-69
2022/07/11 14:23:57;;;;;;;3.08;2.30;;;18.20;99.90;;;;;;9181636;19;20018;-69
2022/07/11 14:27:01;;;;;;;2.78;1.65;;;18.00;99.90;;;;;;9181501;19;20078;-69
2022/07/11 14:30:08;;;;;;;2.03;1.50;;;18.40;99.90;;;;;;9180434;19;20055;-70
2022/07/11 14:33:12;;;;;;;3.53;1.67;;;18.50;99.90;;;;;;9180981;19;20016;-69
2022/07/11 14:36:16;;;;;;;1.77;1.38;;;18.50;99.90;;;;;;9179882;19;20014;-69
2022/07/11 14:39:23;;;;;;;2.45;1.25;;;18.40;99.90;;;;;;9180713;19;20473;-69
2022/07/11 14:42:28;;;;;;;;;;;18.10;99.90;;;;;;9181887;19;20404;-69
2022/07/11 14:45:31;;;;;;;2.03;1.10;;;18.10;99.90;;;;;;9178684;19;20343;-70
2022/07/11 14:48:37;;;;;;;1.98;1.30;;;18.10;99.90;;;;;;9181444;19;20047;-69
2022/07/11 14:51:41;;;;;;;2.47;1.38;;;18.00;99.90;;;;;;9177580;19;20396;-70
2022/07/11 14:54:47;;;;;;;1.60;1.38;;;17.90;99.90;;;;;;9179122;19;20088;-70
2022/07/11 14:57:51;;;;;;;1.70;1.50;;;17.90;99.90;;;;;;9175458;19;20543;-69
2022/07/11 15:00:55;;;;;;;1.67;1.27;;;18.10;99.90;;;;;;9175748;19;20017;-70
2022/07/11 15:03:59;;;;;;;2.60;1.30;;;18.10;99.90;;;;;;9178336;19;20383;-68
2022/07/11 15:13:38;;;;;;;2.85;1.63;;;18.20;99.90;;;;;;9175555;19;20078;-68
2022/07/11 15:16:42;;;;;;;2.40;1.20;;;18.80;99.90;;;;;;9178785;19;20051;-69
2022/07/11 15:19:46;;;;;;;1.98;1.00;;;18.30;99.90;;;;;;9179741;19;20014;-68
2022/07/11 15:22:50;;;;;;;1.42;0.85;;;18.30;99.90;;;;;;9179389;19;20018;-68
2022/07/11 15:25:56;;;;;;;1.88;0.98;;;18.40;99.90;;;;;;9175507;19;20425;-69
2022/07/11 15:29:00;;;;;;;0.68;0.60;;;18.40;99.90;;;;;;9176249;19;20416;-71
2022/07/11 15:32:05;;;;;;;1.48;0.90;;;18.30;99.90;;;;;;9172735;19;20010;-68
2022/07/11 15:35:10;;;;;;;2.63;1.10;;;18.30;99.90;;;;;;9179209;19;20014;-69
2022/07/11 15:38:14;;;;;;;2.13;1.05;;;18.10;99.90;;;;;;9181182;19;20466;-69
2022/07/11 15:41:21;;;;;;;1.75;0.98;;;18.10;99.90;;;;;;9172405;19;20360;-68
2022/07/11 15:44:25;;;;;;;1.42;0.90;;;17.90;99.90;;;;;;9179934;19;20078;-69
2022/07/11 15:47:29;;;;;;;1.77;0.93;;;18.00;99.90;;;;;;9183633;19;20010;-69
2022/07/11 15:50:33;;;;;;;0.80;0.80;;;18.10;99.90;;;;;;9186782;19;20021;-68
2022/07/11 15:53:38;;;;;;;1.13;0.90;;;17.80;99.90;;;;;;9184985;19;20043;-69
2022/07/11 15:56:47;;;;;;;;;;;17.80;99.90;;;;;;9188495;19;20395;-72
2022/07/11 15:59:51;;;;;;;0.80;0.80;;;18.00;99.90;;;;;;9186810;19;19937;-71
2022/07/11 16:02:54;;;;;;;2.30;0.88;;;17.90;99.90;;;;;;9183105;19;20014;-71
2022/07/11 16:05:58;;;;;;;1.45;1.00;;;17.70;99.90;;;;;;9185273;19;20018;-68
2022/07/11 16:09:03;;;;;;;2.38;0.85;;;17.80;99.90;;;;;;9183049;19;20019;-70
2022/07/11 16:12:09;;;;;;;1.15;0.80;;;17.90;99.90;;;;;;9182149;19;20025;-70
2022/07/11 16:15:13;;;;;;;1.63;0.80;;;18.00;99.90;;;;;;9187238;19;20015;-72
2022/07/11 16:18:17;;;;;;;1.30;0.88;;;18.10;99.90;;;;;;9187228;19;20014;-68
2022/07/11 16:21:22;;;;;;;0.80;0.80;;;17.80;99.90;;;;;;9180911;19;20026;-68
2022/07/11 16:24:26;;;;;;;0.90;0.88;;;17.90;99.90;;;;;;9185111;19;20097;-67
2022/07/11 16:27:32;;;;;;;0.85;0.70;;;18.00;99.90;;;;;;9180177;19;20086;-67
2022/07/11 16:30:36;;;;;;;4.32;0.90;;;17.80;99.90;;;;;;9185649;19;20022;-69